createdAt,value
2022-09-28T01:03:18.451Z,90.80
2022-09-28T01:05:45.191Z,90.70
2022-09-28T01:08:11.860Z,90.70
2022-09-28T01:10:38.541Z,90.80
2022-09-28T01:13:05.155Z,90.90
2022-09-28T01:15:31.723Z,90.90
2022-09-28T01:18:11.640Z,90.90
2022-09-28T01:20:49.358Z,90.90
2022-09-28T01:23:30.090Z,90.80
2022-09-28T01:26:39.289Z,90.70
2022-09-28T01:29:26.431Z,90.70
2022-09-28T01:31:57.921Z,90.70
2022-09-28T01:34:28.158Z,90.60
2022-09-28T01:36:55.819Z,90.50
2022-09-28T01:39:45.680Z,90.50
2022-09-28T01:42:23.787Z,90.40
2022-09-28T01:44:51.197Z,90.40
2022-09-28T01:47:19.802Z,90.40
2022-09-28T01:49:48.768Z,90.50
2022-09-28T01:52:16.183Z,90.50
2022-09-28T01:55:03.678Z,90.50
2022-09-28T01:57:53.146Z,90.40
2022-09-28T02:00:19.908Z,90.20
2022-09-28T02:02:47.935Z,90.20
2022-09-28T02:05:20.058Z,90.10
2022-09-28T02:08:20.974Z,90.20
2022-09-28T02:10:55.103Z,90.40
2022-09-28T02:13:39.134Z,90.50
2022-09-28T02:16:06.026Z,90.50
2022-09-28T02:18:32.652Z,90.40
2022-09-28T02:21:30.010Z,89.90
2022-09-28T02:23:57.983Z,89.80
2022-09-28T02:26:27.407Z,89.80
2022-09-28T02:28:54.007Z,89.70
2022-09-28T02:31:20.647Z,89.80
2022-09-28T02:33:47.264Z,90.00
2022-09-28T02:36:13.874Z,90.10
2022-09-28T02:38:40.529Z,90.30
2022-09-28T02:41:42.850Z,90.30
2022-09-28T02:44:37.446Z,90.40
2022-09-28T02:47:09.846Z,90.50
2022-09-28T02:49:42.742Z,90.70
2022-09-28T02:52:32.483Z,90.80
2022-09-28T02:55:16.618Z,90.70
2022-09-28T02:57:52.061Z,90.50
2022-09-28T03:00:20.095Z,90.60
2022-09-28T03:02:51.484Z,90.70
2022-09-28T03:05:41.417Z,90.60
2022-09-28T03:08:33.777Z,90.50
2022-09-28T03:11:07.615Z,90.40
2022-09-28T03:13:34.228Z,90.20
2022-09-28T03:16:08.929Z,90.10
2022-09-28T03:18:35.621Z,90.00
2022-09-28T03:21:02.240Z,90.00
2022-09-28T03:23:28.880Z,89.80
2022-09-28T03:25:55.549Z,89.60
2022-09-28T03:28:22.228Z,89.60
2022-09-28T03:30:49.470Z,89.60
2022-09-28T03:33:16.482Z,89.60
2022-09-28T03:35:46.778Z,89.60
2022-09-28T03:38:13.482Z,89.30
2022-09-28T03:40:40.130Z,89.20
2022-09-28T03:43:06.800Z,89.10
2022-09-28T03:45:33.502Z,89.30
2022-09-28T03:48:00.342Z,89.50
2022-09-28T03:50:30.100Z,89.50
2022-09-28T03:53:01.274Z,89.60
2022-09-28T03:55:27.918Z,89.30
2022-09-28T03:57:54.703Z,89.10
2022-09-28T04:00:21.362Z,88.80
2022-09-28T04:02:47.980Z,88.50
2022-09-28T04:05:14.775Z,88.20
2022-09-28T04:07:41.473Z,88.10
2022-09-28T04:10:08.668Z,87.90
2022-09-28T04:12:35.300Z,87.80
2022-09-28T04:15:01.946Z,87.70
2022-09-28T04:17:28.553Z,87.50
2022-09-28T04:19:55.193Z,87.60
2022-09-28T04:22:21.758Z,87.60
2022-09-28T04:24:48.440Z,87.60
2022-09-28T04:27:15.082Z,87.60
2022-09-28T04:29:41.667Z,87.80
2022-09-28T04:32:08.318Z,88.20
2022-09-28T04:34:37.911Z,88.40
2022-09-28T04:37:06.227Z,88.80
2022-09-28T04:39:32.862Z,88.90
2022-09-28T04:41:59.460Z,89.00
2022-09-28T04:44:26.096Z,88.90
2022-09-28T04:46:54.678Z,88.80
2022-09-28T04:49:21.290Z,88.50
2022-09-28T04:51:47.953Z,88.20
2022-09-28T04:54:14.583Z,88.10
2022-09-28T04:56:41.308Z,88.10
2022-09-28T04:59:07.951Z,88.10
2022-09-28T05:01:34.646Z,88.30
2022-09-28T05:04:01.512Z,88.30
2022-09-28T05:06:28.366Z,88.30
2022-09-28T05:09:01.944Z,88.20
2022-09-28T05:11:28.898Z,88.00
2022-09-28T05:13:57.723Z,88.00
2022-09-28T05:16:33.465Z,87.90
2022-09-28T05:19:00.953Z,87.80
2022-09-28T05:21:27.902Z,87.80
2022-09-28T05:23:55.020Z,87.80
2022-09-28T05:26:23.577Z,87.80
2022-09-28T05:28:50.654Z,87.50
2022-09-28T05:31:20.449Z,87.50
2022-09-28T05:33:47.984Z,87.50
2022-09-28T05:36:18.864Z,87.50
2022-09-28T05:38:48.005Z,87.60
2022-09-28T05:41:16.240Z,87.60
2022-09-28T05:43:48.740Z,87.80
2022-09-28T05:46:15.623Z,87.90
2022-09-28T05:48:45.617Z,88.20
2022-09-28T05:51:14.504Z,88.60
2022-09-28T05:53:46.223Z,89.00
2022-09-28T05:56:20.396Z,89.50
2022-09-28T05:58:47.025Z,89.80
2022-09-28T06:01:13.739Z,90.10
2022-09-28T06:03:50.717Z,90.40
2022-09-28T06:06:17.336Z,90.90
2022-09-28T06:08:43.990Z,91.00
2022-09-28T06:11:10.616Z,91.00
2022-09-28T06:13:37.584Z,90.90
2022-09-28T06:16:08.155Z,90.80
2022-09-28T06:18:34.862Z,90.70
2022-09-28T06:21:01.603Z,90.80
2022-09-28T06:23:40.403Z,90.80
2022-09-28T06:26:07.447Z,90.90
2022-09-28T06:31:09.769Z,90.90
2022-09-28T06:33:56.390Z,91.10
2022-09-28T06:36:23.124Z,91.70
2022-09-28T06:38:49.781Z,91.80
2022-09-28T06:41:19.471Z,91.90
2022-09-28T06:43:48.063Z,92.20
2022-09-28T06:46:14.785Z,92.30
2022-09-28T06:48:41.401Z,92.30
2022-09-28T06:51:08.085Z,92.40
2022-09-28T06:53:34.835Z,92.40
2022-09-28T06:56:01.597Z,92.40
2022-09-28T06:58:28.288Z,92.40
2022-09-28T07:00:56.623Z,92.50
2022-09-28T07:03:23.253Z,92.70
2022-09-28T07:05:50.747Z,92.70
2022-09-28T07:08:17.568Z,92.80
2022-09-28T07:10:45.353Z,92.90
2022-09-28T07:13:31.768Z,93.00
2022-09-28T07:15:58.783Z,93.10
2022-09-28T07:18:25.774Z,93.50
2022-09-28T07:20:54.705Z,93.60
2022-09-28T07:23:21.424Z,93.70
2022-09-28T07:25:48.180Z,93.80
2022-09-28T07:28:15.056Z,94.00
2022-09-28T07:30:42.032Z,94.10
2022-09-28T07:33:09.093Z,94.20
2022-09-28T07:35:35.719Z,94.10
2022-09-28T07:38:03.900Z,94.00
2022-09-28T07:40:30.818Z,93.90
2022-09-28T07:43:03.819Z,93.80
2022-09-28T07:45:30.508Z,93.90
2022-09-28T07:47:57.156Z,93.80
2022-09-28T07:50:23.977Z,93.80
2022-09-28T07:52:50.668Z,93.70
2022-09-28T07:55:17.404Z,93.80
2022-09-28T07:57:45.181Z,93.80
2022-09-28T08:00:12.597Z,93.60
2022-09-28T08:02:39.346Z,93.20
2022-09-28T08:05:06.448Z,93.00
2022-09-28T08:07:33.200Z,93.10
2022-09-28T08:09:59.852Z,93.10
2022-09-28T08:12:26.491Z,92.70
2022-09-28T08:14:53.096Z,92.60
2022-09-28T08:17:19.689Z,92.60
2022-09-28T08:19:46.289Z,92.70
2022-09-28T08:22:13.141Z,93.10
2022-09-28T08:24:39.908Z,93.20
2022-09-28T08:27:06.531Z,93.00
2022-09-28T08:29:33.152Z,91.90
2022-09-28T08:32:01.775Z,91.40
2022-09-28T08:34:29.738Z,91.40
2022-09-28T08:36:59.720Z,91.50
2022-09-28T08:39:26.367Z,91.70
2022-09-28T08:42:19.739Z,91.70
2022-09-28T08:44:58.273Z,91.10
2022-09-28T08:47:29.532Z,90.60
2022-09-28T08:49:58.535Z,90.00
2022-09-28T08:52:28.521Z,89.60
2022-09-28T08:55:34.976Z,88.60
2022-09-28T08:58:15.286Z,84.00
2022-09-28T09:00:50.412Z,85.50
2022-09-28T09:03:46.486Z,83.20
2022-09-28T09:06:35.832Z,77.60
2022-09-28T09:09:19.821Z,81.30
2022-09-28T09:12:03.324Z,79.60
2022-09-28T09:15:00.468Z,77.30
2022-09-28T09:18:07.567Z,73.60
2022-09-28T09:20:54.951Z,70.20
2022-09-28T09:23:49.043Z,73.30
2022-09-28T09:26:20.792Z,69.00
2022-09-28T09:29:10.269Z,69.20
2022-09-28T09:31:59.108Z,69.70
2022-09-28T09:34:55.953Z,65.80
2022-09-28T09:37:39.802Z,62.20
2022-09-28T09:40:54.010Z,64.60
2022-09-28T09:43:45.697Z,61.60
2022-09-28T09:46:17.317Z,61.00
2022-09-28T09:49:08.410Z,60.00
2022-09-28T09:52:24.573Z,57.70
2022-09-28T09:54:53.552Z,57.10
2022-09-28T09:57:56.833Z,57.10
2022-09-28T10:00:23.424Z,53.70
2022-09-28T10:02:50.174Z,54.70
2022-09-28T10:16:01.855Z,57.30
2022-09-28T10:18:28.528Z,56.50
2022-09-28T10:20:55.296Z,56.00
2022-09-28T10:23:28.206Z,55.70
2022-09-28T10:25:57.922Z,56.80
2022-09-28T10:28:59.284Z,57.70
2022-09-28T10:31:43.196Z,57.40
2022-09-28T10:34:13.648Z,57.20
2022-09-28T10:37:08.889Z,55.50
2022-09-28T10:39:37.219Z,55.80
2022-09-28T10:42:09.341Z,55.30
2022-09-28T10:44:59.214Z,52.00
2022-09-28T10:47:27.334Z,50.20
2022-09-28T10:49:54.224Z,50.90
2022-09-28T10:52:48.045Z,51.20
2022-09-28T10:55:33.017Z,50.90
2022-09-28T10:57:59.958Z,51.80
2022-09-28T11:00:44.925Z,52.90
2022-09-28T11:03:27.507Z,52.10
2022-09-28T11:06:05.214Z,55.00
2022-09-28T11:08:37.088Z,54.20
2022-09-28T11:11:06.038Z,54.80
2022-09-28T11:13:41.468Z,54.30
2022-09-28T11:16:08.370Z,53.60
2022-09-28T11:18:35.040Z,54.20
2022-09-28T11:21:15.081Z,55.10
2022-09-28T11:23:41.808Z,55.30
2022-09-28T11:26:11.924Z,55.60
2022-09-28T11:28:41.495Z,55.40
2022-09-28T11:31:09.185Z,55.30
2022-09-28T11:33:40.214Z,55.70
2022-09-28T11:36:15.794Z,55.00
2022-09-28T11:38:48.511Z,55.30
2022-09-28T11:41:38.023Z,53.90
2022-09-28T11:44:10.842Z,55.10
2022-09-28T11:46:44.790Z,55.00
2022-09-28T11:49:20.357Z,55.30
2022-09-28T11:51:48.031Z,55.70
2022-09-28T11:54:20.113Z,56.00
2022-09-28T11:56:48.389Z,56.30
2022-09-28T11:59:27.070Z,56.50
2022-09-28T12:01:57.908Z,56.70
2022-09-28T12:04:41.683Z,58.10
2022-09-28T12:07:18.264Z,59.10
2022-09-28T12:10:13.377Z,58.80
2022-09-28T12:12:41.568Z,58.80
2022-09-28T12:15:27.579Z,59.00
2022-09-28T12:18:19.192Z,59.70
2022-09-28T12:20:48.113Z,60.10
2022-09-28T12:23:24.351Z,60.80
2022-09-28T12:25:59.025Z,61.80
2022-09-28T12:28:36.867Z,62.10
2022-09-28T12:31:22.744Z,62.30
2022-09-28T12:33:50.673Z,63.10
2022-09-28T12:36:43.510Z,63.00
2022-09-28T12:39:30.906Z,63.70
2022-09-28T12:42:16.176Z,63.90
2022-09-28T12:44:59.139Z,65.10
2022-09-28T12:47:34.130Z,65.00
2022-09-28T12:53:02.339Z,65.00
2022-09-28T12:55:48.384Z,65.70
2022-09-28T12:58:27.384Z,65.90
2022-09-28T13:01:14.929Z,65.50
2022-09-28T13:04:15.722Z,65.80
2022-09-28T13:07:13.386Z,67.40
2022-09-28T13:10:07.180Z,67.90
2022-09-28T13:13:01.693Z,69.40
2022-09-28T13:15:31.122Z,69.80
2022-09-28T13:17:59.748Z,69.90
2022-09-28T13:20:33.190Z,70.10
2022-09-28T13:23:49.279Z,69.60
2022-09-28T13:26:40.608Z,70.50
2022-09-28T13:29:15.150Z,70.50
2022-09-28T13:31:53.629Z,70.60
2022-09-28T13:34:22.478Z,71.80
2022-09-28T13:37:15.132Z,71.00
2022-09-28T13:39:44.595Z,68.60
2022-09-28T13:42:45.724Z,70.30
2022-09-28T13:45:21.208Z,67.40
2022-09-28T13:48:20.503Z,68.00
2022-09-28T13:51:08.088Z,65.60
2022-09-28T13:53:56.707Z,63.60
2022-09-28T13:56:48.228Z,62.30
2022-09-28T13:59:30.561Z,60.00
2022-09-28T14:02:13.894Z,59.20
2022-09-28T14:04:59.573Z,58.60
2022-09-28T14:07:34.830Z,58.60
2022-09-28T14:10:16.537Z,59.40
2022-09-28T14:12:45.634Z,58.50
2022-09-28T14:15:36.421Z,58.20
2022-09-28T14:18:24.234Z,58.10
2022-09-28T14:20:55.148Z,58.20
2022-09-28T14:23:36.273Z,58.40
2022-09-28T14:26:14.745Z,57.90
2022-09-28T14:28:49.599Z,59.10
2022-09-28T14:31:27.382Z,59.10
2022-09-28T14:33:55.762Z,59.30
2022-09-28T14:36:46.231Z,59.70
2022-09-28T14:39:27.915Z,59.60
2022-09-28T14:41:54.638Z,59.20
2022-09-28T14:44:21.304Z,59.50
2022-09-28T14:46:48.063Z,59.50
2022-09-28T14:49:17.704Z,59.80
2022-09-28T14:51:48.041Z,58.80
2022-09-28T14:54:22.421Z,58.10
2022-09-28T14:56:52.067Z,57.30
2022-09-28T14:59:25.476Z,57.40
2022-09-28T15:02:01.119Z,57.30
2022-09-28T15:04:28.487Z,57.00
2022-09-28T15:06:58.251Z,56.60
2022-09-28T15:09:31.420Z,57.10
2022-09-28T15:12:02.068Z,57.10
2022-09-28T15:14:42.974Z,57.10
2022-09-28T15:17:10.568Z,57.50
2022-09-28T15:20:09.536Z,57.60
2022-09-28T15:22:44.818Z,57.10
2022-09-28T15:25:19.611Z,57.80
2022-09-28T15:27:50.909Z,58.50
2022-09-28T15:30:33.517Z,58.80
2022-09-28T15:33:22.724Z,58.90
2022-09-28T15:36:05.986Z,59.40
2022-09-28T15:38:36.814Z,59.60
2022-09-28T15:41:06.050Z,60.60
2022-09-28T15:43:36.515Z,61.00
2022-09-28T15:46:19.114Z,60.80
2022-09-28T15:48:48.996Z,61.00
2022-09-28T15:51:15.954Z,61.00
2022-09-28T15:53:54.999Z,61.50
2022-09-28T15:56:21.870Z,61.70
2022-09-28T15:59:13.492Z,62.40
2022-09-28T16:01:43.571Z,62.80
2022-09-28T16:04:39.130Z,62.80
2022-09-28T16:07:32.178Z,62.90
2022-09-28T16:10:19.505Z,62.80
2022-09-28T16:12:49.278Z,63.10
2022-09-28T16:15:29.043Z,63.40
2022-09-28T16:18:19.716Z,63.60
2022-09-28T16:20:48.240Z,64.20
2022-09-28T16:23:32.318Z,64.40
2022-09-28T16:26:00.668Z,64.80
2022-09-28T16:28:34.511Z,65.10
2022-09-28T16:31:28.806Z,65.30
2022-09-28T16:33:59.780Z,65.30
2022-09-28T16:36:27.805Z,65.60
2022-09-28T16:38:54.502Z,65.90
2022-09-28T16:41:22.971Z,66.10
2022-09-28T16:43:49.621Z,66.20
2022-09-28T16:46:16.808Z,66.40
2022-09-28T16:48:47.602Z,66.50
2022-09-28T16:51:21.138Z,66.80
2022-09-28T16:53:47.863Z,66.80
2022-09-28T16:56:14.531Z,66.90
2022-09-28T16:58:41.220Z,66.90
2022-09-28T17:01:09.513Z,66.90
2022-09-28T17:03:36.292Z,66.80
2022-09-28T17:06:03.950Z,66.80
2022-09-28T17:08:30.684Z,66.90
2022-09-28T17:11:20.145Z,66.70
2022-09-28T17:13:48.413Z,66.80
2022-09-28T17:16:36.786Z,67.10
2022-09-28T17:19:26.840Z,67.40
2022-09-28T17:21:53.485Z,67.80
2022-09-28T17:24:20.630Z,67.90
2022-09-28T17:26:50.902Z,68.20
2022-09-28T17:29:19.002Z,68.70
2022-09-28T17:31:46.078Z,69.40
2022-09-28T17:34:13.581Z,69.90
2022-09-28T17:36:43.467Z,70.30
2022-09-28T17:39:13.958Z,70.90
2022-09-28T17:41:40.713Z,71.10
2022-09-28T17:44:07.811Z,71.50
2022-09-28T17:46:38.494Z,71.70
2022-09-28T17:49:06.658Z,72.00
2022-09-28T17:51:36.535Z,72.40
2022-09-28T17:54:03.471Z,72.70
2022-09-28T17:56:32.369Z,73.00
2022-09-28T17:59:04.373Z,73.20
2022-09-28T18:01:34.656Z,73.40
2022-09-28T18:04:05.522Z,73.60
2022-09-28T18:06:34.518Z,74.00
2022-09-28T18:09:01.799Z,74.00
2022-09-28T18:11:34.007Z,74.20
2022-09-28T18:14:00.967Z,74.40
2022-09-28T18:16:30.300Z,74.60
2022-09-28T18:18:57.252Z,74.70
2022-09-28T18:21:24.337Z,74.70
2022-09-28T18:23:53.655Z,74.90
2022-09-28T18:26:20.435Z,75.10
2022-09-28T18:28:47.219Z,75.20
2022-09-28T18:31:14.680Z,75.40
2022-09-28T18:33:44.520Z,75.70
2022-09-28T18:36:11.331Z,75.60
2022-09-28T18:38:40.630Z,75.80
2022-09-28T18:41:12.435Z,76.10
2022-09-28T18:43:41.560Z,76.30
2022-09-28T18:46:09.101Z,76.30
2022-09-28T18:48:36.830Z,76.70
2022-09-28T18:51:07.270Z,76.80
2022-09-28T18:53:33.945Z,76.90
2022-09-28T18:56:11.116Z,76.80
2022-09-28T18:58:39.273Z,76.90
2022-09-28T19:01:29.810Z,77.00
2022-09-28T19:04:03.388Z,77.10
2022-09-28T19:06:30.221Z,77.30
2022-09-28T19:08:57.174Z,77.40
2022-09-28T19:11:25.036Z,77.60
2022-09-28T19:13:52.967Z,77.60
2022-09-28T19:16:21.581Z,77.60
2022-09-28T19:18:48.323Z,77.90
2022-09-28T19:21:15.309Z,78.00
2022-09-28T19:23:46.866Z,78.00
2022-09-28T19:26:19.928Z,78.10
2022-09-28T19:28:46.905Z,78.30
2022-09-28T19:31:13.700Z,78.30
2022-09-28T19:33:41.450Z,78.30
2022-09-28T19:36:12.242Z,78.40
2022-09-28T19:38:39.169Z,78.50
2022-09-28T19:41:12.020Z,78.70
2022-09-28T19:43:38.782Z,78.80
2022-09-28T19:46:06.040Z,78.70
2022-09-28T19:48:33.412Z,78.70
2022-09-28T19:51:01.843Z,78.80
2022-09-28T19:53:35.786Z,79.00
